sensor_id;sensor_type;location;lat;lon;timestamp;pressure;altitude;pressure_sealevel;temperature;humidity
62710;BME280;48770;51.624;5.886;2023-06-26T00:01:41;101103.91;;;28.90;41.69
62710;BME280;48770;51.624;5.886;2023-06-26T00:04:07;101101.09;;;28.90;41.55
62710;BME280;48770;51.624;5.886;2023-06-26T00:06:33;101105.91;;;28.89;42.20
62710;BME280;48770;51.624;5.886;2023-06-26T00:08:58;101099.44;;;28.89;41.87
62710;BME280;48770;51.624;5.886;2023-06-26T00:11:24;101096.63;;;28.89;42.11
62710;BME280;48770;51.624;5.886;2023-06-26T00:13:50;101091.84;;;28.89;41.96
62710;BME280;48770;51.624;5.886;2023-06-26T00:16:15;101091.84;;;28.89;41.99
62710;BME280;48770;51.624;5.886;2023-06-26T00:18:41;101092.22;;;28.88;41.52
62710;BME280;48770;51.624;5.886;2023-06-26T00:21:06;101086.56;;;28.88;41.89
62710;BME280;48770;51.624;5.886;2023-06-26T00:23:31;101085.78;;;28.87;41.53
62710;BME280;48770;51.624;5.886;2023-06-26T00:25:58;101082.97;;;28.87;41.95
62710;BME280;48770;51.624;5.886;2023-06-26T00:28:23;101084.97;;;28.86;41.95
62710;BME280;48770;51.624;5.886;2023-06-26T00:30:48;101074.91;;;28.85;41.85
62710;BME280;48770;51.624;5.886;2023-06-26T00:33:13;101078.53;;;28.86;41.95
62710;BME280;48770;51.624;5.886;2023-06-26T00:35:39;101076.53;;;28.86;41.93
62710;BME280;48770;51.624;5.886;2023-06-26T00:38:04;101065.28;;;28.86;41.94
62710;BME280;48770;51.624;5.886;2023-06-26T00:40:29;101072.91;;;28.86;41.93
62710;BME280;48770;51.624;5.886;2023-06-26T00:42:55;101068.47;;;28.85;41.92
62710;BME280;48770;51.624;5.886;2023-06-26T00:45:20;101072.09;;;28.85;41.73
62710;BME280;48770;51.624;5.886;2023-06-26T00:47:46;101070.91;;;28.86;41.98
62710;BME280;48770;51.624;5.886;2023-06-26T00:50:11;101077.34;;;28.87;41.82
62710;BME280;48770;51.624;5.886;2023-06-26T00:52:40;101074.91;;;28.85;41.74
62710;BME280;48770;51.624;5.886;2023-06-26T00:55:06;101070.47;;;28.84;41.64
62710;BME280;48770;51.624;5.886;2023-06-26T00:57:32;101075.72;;;28.86;41.52
62710;BME280;48770;51.624;5.886;2023-06-26T00:59:57;101072.09;;;28.85;41.23
62710;BME280;48770;51.624;5.886;2023-06-26T01:02:23;101067.66;;;28.84;41.40
62710;BME280;48770;51.624;5.886;2023-06-26T01:04:52;101062.03;;;28.84;41.29
62710;BME280;48770;51.624;5.886;2023-06-26T01:07:18;101065.66;;;28.85;41.23
62710;BME280;48770;51.624;5.886;2023-06-26T01:09:46;101069.28;;;28.85;41.82
62710;BME280;48770;51.624;5.886;2023-06-26T01:12:12;101067.66;;;28.84;41.44
62710;BME280;48770;51.624;5.886;2023-06-26T01:14:37;101066.03;;;28.83;41.39
62710;BME280;48770;51.624;5.886;2023-06-26T01:17:03;101066.03;;;28.83;41.41
62710;BME280;48770;51.624;5.886;2023-06-26T01:19:30;101071.69;;;28.83;41.24
62710;BME280;48770;51.624;5.886;2023-06-26T01:22:04;101073.28;;;28.84;41.65
62710;BME280;48770;51.624;5.886;2023-06-26T01:24:42;101070.88;;;28.83;41.54
62710;BME280;48770;51.624;5.886;2023-06-26T01:27:10;101073.69;;;28.83;41.16
62710;BME280;48770;51.624;5.886;2023-06-26T01:29:37;101077.31;;;28.83;41.42
62710;BME280;48770;51.624;5.886;2023-06-26T01:32:03;101070.88;;;28.83;40.92
62710;BME280;48770;51.624;5.886;2023-06-26T01:34:29;101073.69;;;28.83;41.46
62710;BME280;48770;51.624;5.886;2023-06-26T01:36:54;101087.75;;;28.83;40.82
62710;BME280;48770;51.624;5.886;2023-06-26T01:39:20;101087.75;;;28.83;41.28
62710;BME280;48770;51.624;5.886;2023-06-26T01:41:45;101088.97;;;28.82;40.81
62710;BME280;48770;51.624;5.886;2023-06-26T01:44:25;101093.78;;;28.81;40.64
62710;BME280;48770;51.624;5.886;2023-06-26T01:52:20;101092.59;;;28.79;40.70
62710;BME280;48770;51.624;5.886;2023-06-26T01:54:56;101096.59;;;28.78;40.88
62710;BME280;48770;51.624;5.886;2023-06-26T01:57:25;101105.84;;;28.78;41.05
62710;BME280;48770;51.624;5.886;2023-06-26T01:59:51;101108.66;;;28.78;40.61
62710;BME280;48770;51.624;5.886;2023-06-26T02:02:17;101109.47;;;28.79;40.83
62710;BME280;48770;51.624;5.886;2023-06-26T02:04:43;101106.66;;;28.79;40.79
62710;BME280;48770;51.624;5.886;2023-06-26T02:07:08;101109.47;;;28.79;40.82
62710;BME280;48770;51.624;5.886;2023-06-26T02:09:34;101120.72;;;28.79;40.52
62710;BME280;48770;51.624;5.886;2023-06-26T02:12:03;101120.72;;;28.79;40.42
62710;BME280;48770;51.624;5.886;2023-06-26T02:14:28;101123.53;;;28.79;40.34
62710;BME280;48770;51.624;5.886;2023-06-26T02:16:53;101124.75;;;28.78;40.73
62710;BME280;48770;51.624;5.886;2023-06-26T02:19:19;101124.75;;;28.78;40.28
62710;BME280;48770;51.624;5.886;2023-06-26T02:21:48;101136.00;;;28.78;40.29
62710;BME280;48770;51.624;5.886;2023-06-26T02:24:14;101136.81;;;28.78;40.78
62710;BME280;48770;51.624;5.886;2023-06-26T02:26:42;101130.38;;;28.78;40.26
62710;BME280;48770;51.624;5.886;2023-06-26T02:29:07;101134.41;;;28.77;40.23
62710;BME280;48770;51.624;5.886;2023-06-26T02:31:33;101134.41;;;28.77;40.34
62710;BME280;48770;51.624;5.886;2023-06-26T02:34:01;101130.78;;;28.76;40.47
62710;BME280;48770;51.624;5.886;2023-06-26T02:36:26;101133.59;;;28.76;40.22
62710;BME280;48770;51.624;5.886;2023-06-26T02:38:52;101128.38;;;28.75;40.60
62710;BME280;48770;51.624;5.886;2023-06-26T02:41:17;101122.75;;;28.75;40.27
62710;BME280;48770;51.624;5.886;2023-06-26T02:43:42;101132.00;;;28.75;40.12
62710;BME280;48770;51.624;5.886;2023-06-26T02:46:07;101131.19;;;28.75;40.23
62710;BME280;48770;51.624;5.886;2023-06-26T02:48:33;101136.81;;;28.75;40.54
62710;BME280;48770;51.624;5.886;2023-06-26T02:50:58;101132.00;;;28.75;40.46
62710;BME280;48770;51.624;5.886;2023-06-26T02:53:24;101136.81;;;28.75;40.53
62710;BME280;48770;51.624;5.886;2023-06-26T02:55:49;101141.63;;;28.74;40.51
62710;BME280;48770;51.624;5.886;2023-06-26T02:58:15;101138.81;;;28.74;39.99
62710;BME280;48770;51.624;5.886;2023-06-26T03:00:40;101149.28;;;28.74;40.07
62710;BME280;48770;51.624;5.886;2023-06-26T03:03:07;101154.91;;;28.74;40.62
62710;BME280;48770;51.624;5.886;2023-06-26T03:05:32;101157.72;;;28.74;40.03
62710;BME280;48770;51.624;5.886;2023-06-26T03:07:57;101160.53;;;28.74;40.15
62710;BME280;48770;51.624;5.886;2023-06-26T03:10:22;101161.75;;;28.73;40.52
62710;BME280;48770;51.624;5.886;2023-06-26T03:12:49;101168.16;;;28.73;40.13
62710;BME280;48770;51.624;5.886;2023-06-26T03:15:14;101162.53;;;28.73;39.90
62710;BME280;48770;51.624;5.886;2023-06-26T03:17:39;101175.81;;;28.73;39.88
62710;BME280;48770;51.624;5.886;2023-06-26T03:20:06;101170.19;;;28.73;39.95
62710;BME280;48770;51.624;5.886;2023-06-26T03:22:33;101170.19;;;28.73;40.06
62710;BME280;48770;51.624;5.886;2023-06-26T03:24:58;101168.56;;;28.72;40.31
62710;BME280;48770;51.624;5.886;2023-06-26T03:27:24;101177.00;;;28.72;40.14
62710;BME280;48770;51.624;5.886;2023-06-26T03:29:49;101172.59;;;28.71;40.08
62710;BME280;48770;51.624;5.886;2023-06-26T03:32:15;101171.78;;;28.70;39.95
62710;BME280;48770;51.624;5.886;2023-06-26T03:34:40;101174.59;;;28.70;40.21
62710;BME280;48770;51.624;5.886;2023-06-26T03:37:05;101179.44;;;28.70;39.92
62710;BME280;48770;51.624;5.886;2023-06-26T03:39:31;101178.63;;;28.69;39.88
62710;BME280;48770;51.624;5.886;2023-06-26T03:41:56;101181.44;;;28.69;39.61
62710;BME280;48770;51.624;5.886;2023-06-26T03:44:25;101186.25;;;28.69;39.67
62710;BME280;48770;51.624;5.886;2023-06-26T03:46:50;101187.06;;;28.69;39.43
62710;BME280;48770;51.624;5.886;2023-06-26T03:49:16;101188.25;;;28.68;39.96
62710;BME280;48770;51.624;5.886;2023-06-26T03:51:41;101201.13;;;28.69;40.05
62710;BME280;48770;51.624;5.886;2023-06-26T03:54:06;101193.91;;;28.68;39.81
62710;BME280;48770;51.624;5.886;2023-06-26T03:56:31;101182.63;;;28.68;39.69
62710;BME280;48770;51.624;5.886;2023-06-26T03:58:57;101190.28;;;28.68;40.00
62710;BME280;48770;51.624;5.886;2023-06-26T04:01:23;101182.63;;;28.68;39.42
62710;BME280;48770;51.624;5.886;2023-06-26T04:03:48;101182.22;;;28.66;39.44
62710;BME280;48770;51.624;5.886;2023-06-26T04:06:13;101192.28;;;28.67;39.32
62710;BME280;48770;51.624;5.886;2023-06-26T04:08:38;101193.50;;;28.66;39.35
62710;BME280;48770;51.624;5.886;2023-06-26T04:11:04;101192.69;;;28.66;39.37
62710;BME280;48770;51.624;5.886;2023-06-26T04:13:29;101203.94;;;28.66;39.79
62710;BME280;48770;51.624;5.886;2023-06-26T04:15:54;101202.34;;;28.65;39.36
62710;BME280;48770;51.624;5.886;2023-06-26T04:18:20;101215.59;;;28.64;39.32
62710;BME280;48770;51.624;5.886;2023-06-26T04:21:13;101208.34;;;28.63;39.65
62710;BME280;48770;51.624;5.886;2023-06-26T04:23:39;101213.19;;;28.63;39.17
62710;BME280;48770;51.624;5.886;2023-06-26T04:26:06;101215.59;;;28.64;39.09
62710;BME280;48770;51.624;5.886;2023-06-26T04:28:35;101224.84;;;28.65;38.97
62710;BME280;48770;51.624;5.886;2023-06-26T04:31:01;101214.78;;;28.64;39.09
62710;BME280;48770;51.624;5.886;2023-06-26T04:33:28;101227.25;;;28.63;39.27
62710;BME280;48770;51.624;5.886;2023-06-26T04:35:53;101226.03;;;28.64;39.29
62710;BME280;48770;51.624;5.886;2023-06-26T04:38:19;101230.88;;;28.63;39.48
62710;BME280;48770;51.624;5.886;2023-06-26T04:40:44;101233.69;;;28.63;38.75
62710;BME280;48770;51.624;5.886;2023-06-26T04:43:10;101234.06;;;28.62;38.81
62710;BME280;48770;51.624;5.886;2023-06-26T04:45:35;101242.94;;;28.64;39.42
62710;BME280;48770;51.624;5.886;2023-06-26T04:48:01;101236.50;;;28.63;39.03
62710;BME280;48770;51.624;5.886;2023-06-26T04:50:27;101244.13;;;28.63;39.25
62710;BME280;48770;51.624;5.886;2023-06-26T04:52:57;101247.75;;;28.63;39.22
62710;BME280;48770;51.624;5.886;2023-06-26T04:55:24;101244.13;;;28.63;39.10
62710;BME280;48770;51.624;5.886;2023-06-26T04:57:50;101239.69;;;28.62;38.88
62710;BME280;48770;51.624;5.886;2023-06-26T05:00:15;101246.94;;;28.63;39.12
62710;BME280;48770;51.624;5.886;2023-06-26T05:02:41;101255.38;;;28.63;39.07
62710;BME280;48770;51.624;5.886;2023-06-26T05:05:06;101257.38;;;28.62;38.87
62710;BME280;48770;51.624;5.886;2023-06-26T05:07:32;101248.13;;;28.62;38.84
62710;BME280;48770;51.624;5.886;2023-06-26T05:09:57;101258.19;;;28.63;38.97
62710;BME280;48770;51.624;5.886;2023-06-26T05:12:22;101250.94;;;28.62;39.08
62710;BME280;48770;51.624;5.886;2023-06-26T05:14:48;101249.31;;;28.61;39.11
62710;BME280;48770;51.624;5.886;2023-06-26T05:17:14;101250.13;;;28.61;39.25
62710;BME280;48770;51.624;5.886;2023-06-26T05:19:39;101248.13;;;28.62;39.19
62710;BME280;48770;51.624;5.886;2023-06-26T05:22:05;101262.19;;;28.62;39.01
62710;BME280;48770;51.624;5.886;2023-06-26T05:24:34;101256.56;;;28.62;39.12
62710;BME280;48770;51.624;5.886;2023-06-26T05:27:00;101249.75;;;28.63;39.39
62710;BME280;48770;51.624;5.886;2023-06-26T05:29:26;101252.56;;;28.63;39.51
62710;BME280;48770;51.624;5.886;2023-06-26T05:31:53;101260.19;;;28.62;39.69
62710;BME280;48770;51.624;5.886;2023-06-26T05:34:22;101269.47;;;28.63;39.16
62710;BME280;48770;51.624;5.886;2023-06-26T05:36:50;101272.28;;;28.63;39.79
62710;BME280;48770;51.624;5.886;2023-06-26T05:39:16;101273.88;;;28.64;39.75
62710;BME280;48770;51.624;5.886;2023-06-26T05:41:43;101269.47;;;28.63;39.42
62710;BME280;48770;51.624;5.886;2023-06-26T05:44:08;101268.63;;;28.62;39.82
62710;BME280;48770;51.624;5.886;2023-06-26T05:46:34;101285.50;;;28.62;39.94
62710;BME280;48770;51.624;5.886;2023-06-26T05:48:59;101281.88;;;28.62;39.96
62710;BME280;48770;51.624;5.886;2023-06-26T05:51:26;101284.34;;;28.63;39.46
62710;BME280;48770;51.624;5.886;2023-06-26T05:53:52;101296.38;;;28.64;39.88
62710;BME280;48770;51.624;5.886;2023-06-26T05:56:17;101300.00;;;28.64;40.00
62710;BME280;48770;51.624;5.886;2023-06-26T05:58:43;101304.84;;;28.64;39.65
62710;BME280;48770;51.624;5.886;2023-06-26T06:01:09;101316.91;;;28.64;39.88
62710;BME280;48770;51.624;5.886;2023-06-26T06:03:34;101308.84;;;28.63;40.02
62710;BME280;48770;51.624;5.886;2023-06-26T06:06:00;101311.25;;;28.64;40.14
62710;BME280;48770;51.624;5.886;2023-06-26T06:08:25;101320.91;;;28.63;40.18
62710;BME280;48770;51.624;5.886;2023-06-26T06:10:50;101320.91;;;28.63;40.11
62710;BME280;48770;51.624;5.886;2023-06-26T06:13:16;101327.34;;;28.64;39.83
62710;BME280;48770;51.624;5.886;2023-06-26T06:15:41;101328.16;;;28.64;40.11
62710;BME280;48770;51.624;5.886;2023-06-26T06:18:06;101332.97;;;28.64;39.83
62710;BME280;48770;51.624;5.886;2023-06-26T06:20:32;101327.34;;;28.64;39.78
62710;BME280;48770;51.624;5.886;2023-06-26T06:22:57;101335.78;;;28.64;39.82
62710;BME280;48770;51.624;5.886;2023-06-26T06:25:22;101337.41;;;28.65;39.78
62710;BME280;48770;51.624;5.886;2023-06-26T06:27:47;101344.22;;;28.64;40.11
62710;BME280;48770;51.624;5.886;2023-06-26T06:30:13;101352.28;;;28.65;40.27
62710;BME280;48770;51.624;5.886;2023-06-26T06:32:38;101355.91;;;28.66;39.63
62710;BME280;48770;51.624;5.886;2023-06-26T06:35:04;101353.88;;;28.66;39.77
62710;BME280;48770;51.624;5.886;2023-06-26T06:37:34;101370.78;;;28.66;40.00
62710;BME280;48770;51.624;5.886;2023-06-26T06:40:00;101364.34;;;28.66;39.77
62710;BME280;48770;51.624;5.886;2023-06-26T06:42:25;101374.38;;;28.67;39.68
62710;BME280;48770;51.624;5.886;2023-06-26T06:44:50;101374.78;;;28.65;40.04
62710;BME280;48770;51.624;5.886;2023-06-26T06:47:15;101378.00;;;28.67;40.12
62710;BME280;48770;51.624;5.886;2023-06-26T06:49:41;101367.97;;;28.66;40.09
62710;BME280;48770;51.624;5.886;2023-06-26T06:52:06;101366.75;;;28.67;39.86
62710;BME280;48770;51.624;5.886;2023-06-26T06:54:32;101365.94;;;28.67;40.27
62710;BME280;48770;51.624;5.886;2023-06-26T06:57:15;101365.94;;;28.67;40.05
62710;BME280;48770;51.624;5.886;2023-06-26T06:59:40;101371.56;;;28.67;39.71
62710;BME280;48770;51.624;5.886;2023-06-26T07:02:07;101372.78;;;28.69;39.55
62710;BME280;48770;51.624;5.886;2023-06-26T07:04:32;101379.63;;;28.68;39.49
62710;BME280;48770;51.624;5.886;2023-06-26T07:06:58;101395.31;;;28.69;39.69
62710;BME280;48770;51.624;5.886;2023-06-26T07:09:23;101398.13;;;28.69;39.51
62710;BME280;48770;51.624;5.886;2023-06-26T07:11:48;101380.44;;;28.69;39.60
62710;BME280;48770;51.624;5.886;2023-06-26T07:14:13;101394.50;;;28.69;39.64
62710;BME280;48770;51.624;5.886;2023-06-26T07:16:39;101400.13;;;28.69;39.87
62710;BME280;48770;51.624;5.886;2023-06-26T07:19:04;101404.56;;;28.70;39.56
62710;BME280;48770;51.624;5.886;2023-06-26T07:21:29;101399.72;;;28.70;40.03
62710;BME280;48770;51.624;5.886;2023-06-26T07:23:54;101406.16;;;28.71;39.65
62710;BME280;48770;51.624;5.886;2023-06-26T07:26:20;101416.22;;;28.72;39.86
62710;BME280;48770;51.624;5.886;2023-06-26T07:28:47;101421.84;;;28.72;39.26
62710;BME280;48770;51.624;5.886;2023-06-26T07:31:13;101431.91;;;28.73;39.61
62710;BME280;48770;51.624;5.886;2023-06-26T07:33:39;101424.66;;;28.72;39.48
62710;BME280;48770;51.624;5.886;2023-06-26T07:36:05;101429.91;;;28.73;39.47
62710;BME280;48770;51.624;5.886;2023-06-26T07:38:30;101430.72;;;28.74;39.75
62710;BME280;48770;51.624;5.886;2023-06-26T07:40:56;101429.09;;;28.73;39.71
62710;BME280;48770;51.624;5.886;2023-06-26T07:43:21;101433.53;;;28.74;39.54
62710;BME280;48770;51.624;5.886;2023-06-26T07:45:48;101435.13;;;28.75;39.75
62710;BME280;48770;51.624;5.886;2023-06-26T07:48:13;101445.59;;;28.74;39.61
62710;BME280;48770;51.624;5.886;2023-06-26T07:50:39;101448.41;;;28.74;39.79
62710;BME280;48770;51.624;5.886;2023-06-26T07:53:04;101446.38;;;28.75;39.77
62710;BME280;48770;51.624;5.886;2023-06-26T07:55:31;101453.63;;;28.76;39.58
62710;BME280;48770;51.624;5.886;2023-06-26T07:57:56;101454.44;;;28.76;39.93
62710;BME280;48770;51.624;5.886;2023-06-26T08:00:22;101448.81;;;28.76;40.13
62710;BME280;48770;51.624;5.886;2023-06-26T08:02:47;101456.44;;;28.76;40.00
62710;BME280;48770;51.624;5.886;2023-06-26T08:05:13;101449.22;;;28.78;39.75
62710;BME280;48770;51.624;5.886;2023-06-26T08:07:38;101450.84;;;28.79;40.41
62710;BME280;48770;51.624;5.886;2023-06-26T08:10:05;101451.66;;;28.80;40.82
62710;BME280;48770;51.624;5.886;2023-06-26T08:12:30;101454.47;;;28.80;40.06
62710;BME280;48770;51.624;5.886;2023-06-26T08:14:55;101457.66;;;28.78;40.22
62710;BME280;48770;51.624;5.886;2023-06-26T08:17:21;101459.28;;;28.79;40.67
62710;BME280;48770;51.624;5.886;2023-06-26T08:19:46;101449.63;;;28.77;40.59
62710;BME280;48770;51.624;5.886;2023-06-26T08:22:12;101452.84;;;28.79;42.38
62710;BME280;48770;51.624;5.886;2023-06-26T08:24:37;101457.66;;;28.78;42.14
62710;BME280;48770;51.624;5.886;2023-06-26T08:27:03;101452.03;;;28.78;41.20
62710;BME280;48770;51.624;5.886;2023-06-26T08:29:29;101462.88;;;28.76;40.22
62710;BME280;48770;51.624;5.886;2023-06-26T08:31:54;101458.44;;;28.72;39.21
62710;BME280;48770;51.624;5.886;2023-06-26T08:34:19;101472.88;;;28.67;38.83
62710;BME280;48770;51.624;5.886;2023-06-26T08:36:45;101452.34;;;28.63;39.07
62710;BME280;48770;51.624;5.886;2023-06-26T08:39:10;101472.00;;;28.59;38.84
62710;BME280;48770;51.624;5.886;2023-06-26T08:41:36;101478.41;;;28.52;38.65
62710;BME280;48770;51.624;5.886;2023-06-26T08:44:02;101479.56;;;28.48;38.61
62710;BME280;48770;51.624;5.886;2023-06-26T08:46:30;101487.97;;;28.44;38.61
62710;BME280;48770;51.624;5.886;2023-06-26T08:48:57;101487.97;;;28.41;38.58
62710;BME280;48770;51.624;5.886;2023-06-26T08:51:27;101489.53;;;28.38;38.51
62710;BME280;48770;51.624;5.886;2023-06-26T08:53:58;101483.47;;;28.36;38.64
62710;BME280;48770;51.624;5.886;2023-06-26T08:56:27;101483.84;;;28.31;37.96
62710;BME280;48770;51.624;5.886;2023-06-26T08:58:54;101474.97;;;28.25;38.31
62710;BME280;48770;51.624;5.886;2023-06-26T09:01:20;101494.66;;;28.25;38.07
62710;BME280;48770;51.624;5.886;2023-06-26T09:03:46;101491.78;;;28.22;37.74
62710;BME280;48770;51.624;5.886;2023-06-26T09:06:11;101492.94;;;28.17;36.07
62710;BME280;48770;51.624;5.886;2023-06-26T09:08:36;101503.75;;;28.12;35.41
62710;BME280;48770;51.624;5.886;2023-06-26T09:11:02;101505.69;;;28.08;34.20
62710;BME280;48770;51.624;5.886;2023-06-26T09:13:30;101507.69;;;28.07;33.58
62710;BME280;48770;51.624;5.886;2023-06-26T09:15:56;101504.06;;;28.07;33.60
62710;BME280;48770;51.624;5.886;2023-06-26T09:18:22;101514.50;;;28.06;33.91
62710;BME280;48770;51.624;5.886;2023-06-26T09:20:48;101514.91;;;28.05;33.73
62710;BME280;48770;51.624;5.886;2023-06-26T09:23:13;101518.91;;;28.04;33.38
62710;BME280;48770;51.624;5.886;2023-06-26T09:25:42;101516.47;;;28.02;33.44
62710;BME280;48770;51.624;5.886;2023-06-26T09:28:08;101530.94;;;28.01;33.76
62710;BME280;48770;51.624;5.886;2023-06-26T09:30:34;101526.06;;;27.98;33.65
62710;BME280;48770;51.624;5.886;2023-06-26T09:33:16;101525.66;;;27.95;33.94
62710;BME280;48770;51.624;5.886;2023-06-26T09:35:43;101538.50;;;27.97;33.83
62710;BME280;48770;51.624;5.886;2023-06-26T09:38:09;101534.09;;;27.95;34.10
62710;BME280;48770;51.624;5.886;2023-06-26T09:40:35;101535.28;;;27.94;33.51
62710;BME280;48770;51.624;5.886;2023-06-26T09:43:04;101537.66;;;27.92;33.52
62710;BME280;48770;51.624;5.886;2023-06-26T09:45:32;101541.69;;;27.91;33.71
62710;BME280;48770;51.624;5.886;2023-06-26T09:48:00;101536.06;;;27.91;32.78
62710;BME280;48770;51.624;5.886;2023-06-26T09:50:25;101546.88;;;27.89;32.73
62710;BME280;48770;51.624;5.886;2023-06-26T09:52:52;101553.69;;;27.88;32.66
62710;BME280;48770;51.624;5.886;2023-06-26T09:55:19;101559.31;;;27.88;32.94
62710;BME280;48770;51.624;5.886;2023-06-26T09:57:45;101560.50;;;27.87;32.82
62710;BME280;48770;51.624;5.886;2023-06-26T10:00:12;101568.13;;;27.87;32.80
62710;BME280;48770;51.624;5.886;2023-06-26T10:02:39;101566.06;;;27.84;32.60
62710;BME280;48770;51.624;5.886;2023-06-26T10:05:05;101558.00;;;27.82;33.07
62710;BME280;48770;51.624;5.886;2023-06-26T10:07:30;101560.81;;;27.82;33.17
62710;BME280;48770;51.624;5.886;2023-06-26T10:09:57;101558.00;;;27.82;32.91
62710;BME280;48770;51.624;5.886;2023-06-26T10:12:28;101562.03;;;27.81;33.26
62710;BME280;48770;51.624;5.886;2023-06-26T10:14:55;101560.81;;;27.82;33.09
62710;BME280;48770;51.624;5.886;2023-06-26T10:17:21;101562.81;;;27.82;33.02
62710;BME280;48770;51.624;5.886;2023-06-26T10:19:48;101564.41;;;27.79;32.63
62710;BME280;48770;51.624;5.886;2023-06-26T10:22:20;101559.97;;;27.78;33.13
62710;BME280;48770;51.624;5.886;2023-06-26T10:24:47;101569.22;;;27.79;32.68
62710;BME280;48770;51.624;5.886;2023-06-26T10:27:18;101568.41;;;27.78;32.34
62710;BME280;48770;51.624;5.886;2023-06-26T10:29:52;101565.59;;;27.78;32.69
62710;BME280;48770;51.624;5.886;2023-06-26T10:32:20;101572.41;;;27.77;32.62
62710;BME280;48770;51.624;5.886;2023-06-26T10:34:46;101579.22;;;27.76;32.69
62710;BME280;48770;51.624;5.886;2023-06-26T10:37:12;101576.00;;;27.74;32.41
62710;BME280;48770;51.624;5.886;2023-06-26T10:42:13;101580.00;;;27.73;32.48
62710;BME280;48770;51.624;5.886;2023-06-26T10:44:41;101591.63;;;27.72;32.06
62710;BME280;48770;51.624;5.886;2023-06-26T10:47:07;101588.81;;;27.72;32.11
62710;BME280;48770;51.624;5.886;2023-06-26T10:49:35;101575.16;;;27.70;32.19
62710;BME280;48770;51.624;5.886;2023-06-26T10:52:01;101578.75;;;27.71;32.54
62710;BME280;48770;51.624;5.886;2023-06-26T10:54:31;101580.38;;;27.72;32.08
62710;BME280;48770;51.624;5.886;2023-06-26T10:56:58;101586.00;;;27.72;32.23
62710;BME280;48770;51.624;5.886;2023-06-26T10:59:28;101603.66;;;27.72;32.15
62710;BME280;48770;51.624;5.886;2023-06-26T11:02:00;101596.44;;;27.71;31.48
62710;BME280;48770;51.624;5.886;2023-06-26T11:04:46;101605.19;;;27.66;31.06
62710;BME280;48770;51.624;5.886;2023-06-26T11:10:00;101599.09;;;27.60;31.00
62710;BME280;48770;51.624;5.886;2023-06-26T11:12:42;101581.34;;;27.56;31.02
62710;BME280;48770;51.624;5.886;2023-06-26T11:15:13;101596.59;;;27.55;31.04
62710;BME280;48770;51.624;5.886;2023-06-26T11:17:39;101605.81;;;27.56;30.95
62710;BME280;48770;51.624;5.886;2023-06-26T11:20:16;101611.81;;;27.54;30.80
62710;BME280;48770;51.624;5.886;2023-06-26T11:22:43;101615.81;;;27.53;29.60
62710;BME280;48770;51.624;5.886;2023-06-26T11:25:10;101612.19;;;27.53;29.59
62710;BME280;48770;51.624;5.886;2023-06-26T11:30:22;101621.78;;;27.48;29.15
62710;BME280;48770;51.624;5.886;2023-06-26T11:32:48;101624.16;;;27.46;28.51
62710;BME280;48770;51.624;5.886;2023-06-26T11:35:22;101618.91;;;27.45;29.06
62710;BME280;48770;51.624;5.886;2023-06-26T11:37:48;101620.09;;;27.44;29.11
62710;BME280;48770;51.624;5.886;2023-06-26T11:40:18;101628.53;;;27.44;29.42
62710;BME280;48770;51.624;5.886;2023-06-26T11:42:44;101632.97;;;27.45;29.64
62710;BME280;48770;51.624;5.886;2023-06-26T11:45:10;101637.38;;;27.46;29.57
62710;BME280;48770;51.624;5.886;2023-06-26T11:47:38;101642.19;;;27.45;29.74
62710;BME280;48770;51.624;5.886;2023-06-26T11:50:04;101647.81;;;27.45;29.44
62710;BME280;48770;51.624;5.886;2023-06-26T11:52:32;101650.25;;;27.47;29.22
62710;BME280;48770;51.624;5.886;2023-06-26T11:54:58;101661.84;;;27.45;28.99
62710;BME280;48770;51.624;5.886;2023-06-26T11:57:23;101664.66;;;27.45;28.69
62710;BME280;48770;51.624;5.886;2023-06-26T11:59:50;101671.47;;;27.44;29.06
62710;BME280;48770;51.624;5.886;2023-06-26T12:02:16;101669.84;;;27.43;29.04
62710;BME280;48770;51.624;5.886;2023-06-26T12:04:42;101673.03;;;27.42;28.82
62710;BME280;48770;51.624;5.886;2023-06-26T12:07:09;101677.03;;;27.41;28.72
62710;BME280;48770;51.624;5.886;2023-06-26T12:09:46;101674.19;;;27.37;28.52
62710;BME280;48770;51.624;5.886;2023-06-26T12:12:14;101687.41;;;27.37;28.45
62710;BME280;48770;51.624;5.886;2023-06-26T12:14:41;101675.00;;;27.38;28.67
62710;BME280;48770;51.624;5.886;2023-06-26T12:17:12;101681.03;;;27.40;28.78
62710;BME280;48770;51.624;5.886;2023-06-26T12:19:39;101695.09;;;27.40;28.39
62710;BME280;48770;51.624;5.886;2023-06-26T12:22:08;101695.09;;;27.40;28.39
62710;BME280;48770;51.624;5.886;2023-06-26T12:24:36;101687.47;;;27.40;28.62
62710;BME280;48770;51.624;5.886;2023-06-26T12:27:02;101682.66;;;27.41;28.99
62710;BME280;48770;51.624;5.886;2023-06-26T12:29:32;101681.09;;;27.43;29.33
62710;BME280;48770;51.624;5.886;2023-06-26T12:31:58;101687.53;;;27.44;29.28
62710;BME280;48770;51.624;5.886;2023-06-26T12:34:29;101706.00;;;27.45;29.08
62710;BME280;48770;51.624;5.886;2023-06-26T12:37:07;101696.75;;;27.44;29.70
62710;BME280;48770;51.624;5.886;2023-06-26T12:39:46;101691.53;;;27.43;29.45
62710;BME280;48770;51.624;5.886;2023-06-26T12:42:14;101688.31;;;27.44;29.65
62710;BME280;48770;51.624;5.886;2023-06-26T12:44:40;101689.13;;;27.45;29.41
62710;BME280;48770;51.624;5.886;2023-06-26T12:47:05;101688.31;;;27.44;29.52
62710;BME280;48770;51.624;5.886;2023-06-26T12:49:36;101677.53;;;27.46;29.80
62710;BME280;48770;51.624;5.886;2023-06-26T12:52:05;101681.56;;;27.49;29.67
62710;BME280;48770;51.624;5.886;2023-06-26T12:54:31;101677.56;;;27.50;30.08
62710;BME280;48770;51.624;5.886;2023-06-26T12:56:57;101687.25;;;27.52;29.71
62710;BME280;48770;51.624;5.886;2023-06-26T12:59:23;101684.44;;;27.52;29.74
62710;BME280;48770;51.624;5.886;2023-06-26T13:01:49;101676.38;;;27.51;29.08